Time;durP1;ratioP1;P1;durP2;ratioP2;P2;SDS_P1;SDS_P2;PMS_P1;PMS_P2;Temp;Humidity;BMP_temperature;BMP_pressure;BME280_temperature;BME280_humidity;BME280_pressure;Samples;Min_cycle;Max_cycle;Signal;HPM_P1;HPM_P2
2020/12/27 05:00:31;;;;;;;3.03;2.83;;;3.90;99.90;;;;;;5892454;23;20224;-72
2020/12/27 05:03:00;;;;;;;2.50;2.40;;;3.90;99.90;;;;;;4971783;28;20577;-70
2020/12/27 05:05:26;;;;;;;2.90;2.70;;;3.90;99.90;;;;;;4954439;29;20209;-71
2020/12/27 05:07:53;;;;;;;3.35;3.15;;;3.90;99.90;;;;;;4962038;28;20283;-70
2020/12/27 05:10:21;;;;;;;3.00;2.80;;;3.90;99.90;;;;;;4952752;29;20221;-71
2020/12/27 05:12:48;;;;;;;1.60;1.55;;;3.90;99.90;;;;;;4951890;28;20201;-71
2020/12/27 05:15:14;;;;;;;3.17;3.08;;;3.90;99.90;;;;;;4954411;28;20209;-70
2020/12/27 05:17:41;;;;;;;2.63;2.53;;;3.90;99.90;;;;;;4942395;28;20596;-71
2020/12/27 05:20:09;;;;;;;2.08;1.98;;;3.90;99.90;;;;;;4953615;28;20206;-71
2020/12/27 05:22:36;;;;;;;2.00;2.00;;;3.90;99.90;;;;;;4938846;29;20325;-70
2020/12/27 05:25:04;;;;;;;2.30;2.25;;;3.90;99.90;;;;;;4936468;29;20690;-70
2020/12/27 05:27:31;;;;;;;2.95;2.75;;;3.90;99.90;;;;;;4953634;28;20216;-70
2020/12/27 05:30:00;;;;;;;2.17;2.08;;;3.90;99.90;;;;;;4953248;28;20213;-77
2020/12/27 05:32:29;;;;;;;2.30;2.00;;;3.90;99.90;;;;;;4939293;29;20225;-76
2020/12/27 05:34:57;;;;;;;2.35;2.15;;;3.90;99.90;;;;;;4936952;29;20282;-70
2020/12/27 05:37:24;;;;;;;1.67;1.63;;;3.90;99.90;;;;;;4948128;29;20209;-70
2020/12/27 05:39:51;;;;;;;3.22;2.47;;;3.90;99.90;;;;;;4939381;29;20233;-69
2020/12/27 05:42:23;;;;;;;2.88;2.63;;;3.90;99.90;;;;;;4935666;29;20284;-70
2020/12/27 05:44:49;;;;;;;2.30;2.20;;;3.90;99.90;;;;;;4954050;28;20264;-70
2020/12/27 05:47:15;;;;;;;1.98;1.98;;;3.90;99.90;;;;;;4952994;29;20236;-70
2020/12/27 05:49:42;;;;;;;2.30;2.20;;;3.90;99.90;;;;;;4948461;29;20256;-70
2020/12/27 05:52:14;;;;;;;2.40;2.20;;;3.90;99.90;;;;;;4948121;28;20231;-70
2020/12/27 05:54:45;;;;;;;2.45;2.25;;;3.90;99.90;;;;;;4953547;28;20304;-71
2020/12/27 05:57:14;;;;;;;2.05;1.92;;;3.90;99.90;;;;;;4952710;29;20228;-71
2020/12/27 05:59:43;;;;;;;2.50;2.50;;;3.90;99.90;;;;;;4949506;29;20264;-70
2020/12/27 06:02:38;;;;;;;1.77;1.77;;;3.90;99.90;;;;;;4953090;29;20237;-70
2020/12/27 06:05:09;;;;;;;2.47;2.38;;;3.90;99.90;;;;;;4940172;29;20237;-70
2020/12/27 06:07:38;;;;;;;2.88;2.17;;;3.80;99.90;;;;;;4937140;29;20216;-70
2020/12/27 06:10:09;;;;;;;2.17;2.17;;;3.80;99.90;;;;;;4949200;29;20205;-70
2020/12/27 06:13:07;;;;;;;1.83;1.73;;;3.80;99.90;;;;;;4935735;29;20209;-72
2020/12/27 06:15:36;;;;;;;1.80;1.67;;;3.80;99.90;;;;;;4951634;28;20295;-72
2020/12/27 06:18:10;;;;;;;2.33;2.22;;;3.80;99.90;;;;;;4953662;29;20228;-72
2020/12/27 06:20:37;;;;;;;1.98;1.83;;;3.80;99.90;;;;;;4952903;29;20252;-72
2020/12/27 06:23:05;;;;;;;2.42;2.22;;;3.80;99.90;;;;;;4952409;28;20220;-72
2020/12/27 06:25:32;;;;;;;2.58;2.47;;;3.80;99.90;;;;;;4952975;28;20260;-72
2020/12/27 06:27:59;;;;;;;1.70;1.60;;;3.80;99.90;;;;;;4937849;29;20245;-72
2020/12/27 06:30:30;;;;;;;2.55;2.35;;;3.80;99.90;;;;;;4942361;28;20220;-72
2020/12/27 06:33:01;;;;;;;1.50;1.50;;;3.80;99.90;;;;;;4953770;28;20296;-72
2020/12/27 06:35:32;;;;;;;2.67;2.13;;;3.80;99.90;;;;;;4953150;29;20205;-73
2020/12/27 06:37:59;;;;;;;1.77;1.67;;;3.80;99.90;;;;;;4953982;29;20240;-72
2020/12/27 06:40:27;;;;;;;2.03;1.92;;;3.80;99.90;;;;;;4951422;28;20208;-73
2020/12/27 06:43:20;;;;;;;1.65;1.65;;;3.80;99.90;;;;;;4953190;29;20236;-72
2020/12/27 06:45:46;;;;;;;1.50;1.50;;;3.80;99.90;;;;;;4951965;29;20217;-72
2020/12/27 06:48:30;;;;;;;1.90;1.80;;;3.80;99.90;;;;;;4936111;29;20312;-72
2020/12/27 06:50:56;;;;;;;1.73;1.73;;;3.90;99.90;;;;;;4953867;29;20702;-72
2020/12/27 06:53:38;;;;;;;2.97;1.75;;;3.80;99.90;;;;;;4954101;28;20669;-72
2020/12/27 06:56:05;;;;;;;1.27;1.27;;;3.80;99.90;;;;;;4943761;28;20666;-72
2020/12/27 06:58:32;;;;;;;1.20;1.20;;;3.80;99.90;;;;;;4948536;29;20201;-73
2020/12/27 07:01:15;;;;;;;1.20;1.20;;;3.90;99.90;;;;;;4956072;28;20241;-72
2020/12/27 07:03:42;;;;;;;1.00;1.00;;;3.90;99.90;;;;;;4956355;28;20209;-73
2020/12/27 07:06:23;;;;;;;1.55;1.55;;;3.90;99.90;;;;;;4956120;28;20572;-72
2020/12/27 07:08:49;;;;;;;1.40;1.40;;;3.90;99.90;;;;;;4952730;28;20673;-73
2020/12/27 07:11:22;;;;;;;1.77;1.70;;;3.90;99.90;;;;;;4959414;29;20229;-72
2020/12/27 07:13:53;;;;;;;1.42;1.38;;;3.90;99.90;;;;;;4951414;29;20213;-72
2020/12/27 07:16:19;;;;;;;1.70;1.70;;;3.90;99.90;;;;;;4954624;28;20205;-72
2020/12/27 07:18:46;;;;;;;1.40;1.40;;;4.00;99.90;;;;;;4953688;29;20209;-75
2020/12/27 07:21:14;;;;;;;1.50;1.50;;;4.00;99.90;;;;;;4962347;29;20244;-76
2020/12/27 07:23:47;;;;;;;1.98;1.90;;;4.00;99.90;;;;;;4956166;28;20209;-76
2020/12/27 07:26:15;;;;;;;1.67;1.55;;;4.00;99.90;;;;;;4948893;28;20242;-76
2020/12/27 07:28:44;;;;;;;1.60;1.58;;;4.00;99.90;;;;;;4954153;29;20201;-75
2020/12/27 07:31:17;;;;;;;1.13;1.13;;;4.10;99.90;;;;;;4956631;29;20729;-76
2020/12/27 07:33:46;;;;;;;0.85;0.85;;;4.10;99.90;;;;;;4951457;29;20198;-76
2020/12/27 07:36:12;;;;;;;1.77;1.50;;;4.10;99.90;;;;;;4945798;29;20202;-72
2020/12/27 07:39:00;;;;;;;1.27;1.27;;;4.20;99.90;;;;;;4950824;29;20206;-70
2020/12/27 07:41:28;;;;;;;1.65;1.65;;;4.20;99.90;;;;;;4946970;28;20225;-71
2020/12/27 07:43:56;;;;;;;0.98;0.98;;;4.20;99.90;;;;;;4949472;29;20290;-71
2020/12/27 07:46:23;;;;;;;1.50;1.50;;;4.20;99.90;;;;;;4951181;29;20673;-73
2020/12/27 07:48:49;;;;;;;1.20;1.20;;;4.20;99.90;;;;;;4962129;28;20205;-75
2020/12/27 07:51:17;;;;;;;0.95;0.95;;;4.20;99.90;;;;;;4960233;29;20284;-74
2020/12/27 07:53:48;;;;;;;1.30;1.25;;;4.20;99.90;;;;;;4961287;29;20225;-74
2020/12/27 07:56:15;;;;;;;1.30;1.30;;;4.20;99.90;;;;;;4959793;28;20212;-75
2020/12/27 07:58:47;;;;;;;1.00;1.00;;;4.20;99.90;;;;;;4958554;29;20268;-75
2020/12/27 08:01:18;;;;;;;1.30;1.30;;;4.30;99.90;;;;;;4954769;28;20599;-75
2020/12/27 08:03:44;;;;;;;1.40;1.40;;;4.20;99.90;;;;;;4955547;29;20201;-75
2020/12/27 08:06:16;;;;;;;0.80;0.80;;;4.20;99.90;;;;;;4954772;28;20201;-75
2020/12/27 08:08:42;;;;;;;1.05;1.05;;;4.20;99.90;;;;;;4957021;28;20209;-70
2020/12/27 08:11:18;;;;;;;0.93;0.93;;;4.20;99.90;;;;;;4958469;28;20236;-75
2020/12/27 08:13:53;;;;;;;2.67;1.50;;;4.20;99.90;;;;;;4957946;29;20205;-73
2020/12/27 08:16:20;;;;;;;1.23;1.10;;;4.20;99.90;;;;;;4958567;28;20221;-75
2020/12/27 08:18:47;;;;;;;1.60;1.60;;;4.20;99.90;;;;;;4952949;28;20213;-75
2020/12/27 08:21:18;;;;;;;1.13;1.13;;;4.20;99.90;;;;;;4954974;28;20240;-75
2020/12/27 08:23:57;;;;;;;1.40;1.23;;;4.20;99.90;;;;;;4955129;28;20632;-72
2020/12/27 08:26:24;;;;;;;1.88;1.58;;;4.20;99.90;;;;;;4954271;28;20259;-69
2020/12/27 08:28:50;;;;;;;1.33;1.10;;;4.20;99.90;;;;;;4955082;28;20281;-69
2020/12/27 08:31:25;;;;;;;1.20;1.20;;;4.20;99.90;;;;;;4946486;28;20260;-69
2020/12/27 08:34:03;;;;;;;1.38;1.38;;;4.30;99.90;;;;;;4951573;28;20212;-69
2020/12/27 08:36:29;;;;;;;1.55;1.50;;;4.30;99.90;;;;;;4949182;29;20579;-69
2020/12/27 08:39:02;;;;;;;1.02;1.02;;;4.30;99.90;;;;;;4954923;28;20252;-72
2020/12/27 08:41:31;;;;;;;1.52;1.20;;;4.30;99.90;;;;;;4943284;29;20244;-71
2020/12/27 08:44:23;;;;;;;1.00;1.00;;;4.30;99.90;;;;;;4954857;28;20357;-71
2020/12/27 08:46:52;;;;;;;1.45;1.45;;;4.30;99.90;;;;;;4952842;29;20197;-72
2020/12/27 08:49:28;;;;;;;1.00;1.00;;;4.30;99.90;;;;;;4953831;28;20681;-71
2020/12/27 08:52:04;;;;;;;1.20;1.20;;;4.40;99.90;;;;;;4951397;29;20331;-71
2020/12/27 08:54:33;;;;;;;1.80;1.70;;;4.40;99.90;;;;;;4953342;28;20244;-71
2020/12/27 08:57:03;;;;;;;1.02;1.02;;;4.40;99.90;;;;;;4936396;29;20220;-71
2020/12/27 08:59:29;;;;;;;0.80;0.80;;;4.40;99.90;;;;;;4954280;29;20217;-71
2020/12/27 09:01:56;;;;;;;1.50;1.50;;;4.40;99.90;;;;;;4935355;28;20232;-72
2020/12/27 09:04:23;;;;;;;2.67;1.10;;;4.40;99.90;;;;;;4936283;29;20214;-72
2020/12/27 09:06:54;;;;;;;1.17;1.17;;;4.50;99.90;;;;;;4953203;29;20198;-72
2020/12/27 09:09:21;;;;;;;1.33;1.33;;;4.50;99.90;;;;;;4967490;29;20202;-73
2020/12/27 09:11:47;;;;;;;0.85;0.85;;;4.50;99.90;;;;;;4964261;29;20290;-72
2020/12/27 09:14:29;;;;;;;1.35;1.35;;;4.50;99.90;;;;;;4952203;29;20206;-72
2020/12/27 09:17:00;;;;;;;1.25;1.25;;;4.60;99.90;;;;;;4959808;29;20209;-72
2020/12/27 09:19:27;;;;;;;0.90;0.90;;;4.60;99.90;;;;;;4956213;29;20221;-73
2020/12/27 09:21:54;;;;;;;0.90;0.90;;;4.60;99.90;;;;;;4969730;29;20229;-72
2020/12/27 09:24:20;;;;;;;0.90;0.90;;;4.80;99.90;;;;;;4967426;29;20296;-73
2020/12/27 09:26:46;;;;;;;1.05;1.05;;;4.80;99.90;;;;;;4958948;28;20216;-73
2020/12/27 09:29:17;;;;;;;1.00;1.00;;;4.80;99.90;;;;;;4956014;28;20213;-72
2020/12/27 09:31:43;;;;;;;1.20;1.20;;;4.80;99.90;;;;;;4956325;29;20244;-73
2020/12/27 09:34:11;;;;;;;1.35;1.25;;;4.80;99.90;;;;;;4954136;28;20244;-73
2020/12/27 09:36:38;;;;;;;2.33;1.38;;;4.80;99.90;;;;;;4954977;28;20219;-73
2020/12/27 09:39:05;;;;;;;0.80;0.80;;;4.80;99.90;;;;;;4954657;28;20576;-72
2020/12/27 09:41:36;;;;;;;0.98;0.98;;;4.80;99.90;;;;;;4953681;29;20225;-73
2020/12/27 09:44:03;;;;;;;0.82;0.82;;;4.80;99.90;;;;;;4935995;29;20210;-72
2020/12/27 09:46:45;;;;;;;1.00;1.00;;;4.90;99.90;;;;;;4943918;29;20205;-73
2020/12/27 09:49:17;;;;;;;1.58;0.93;;;4.90;99.90;;;;;;4953093;28;20205;-73
2020/12/27 09:51:43;;;;;;;14.68;9.95;;;4.90;99.90;;;;;;4936886;29;20230;-73
2020/12/27 09:54:09;;;;;;;16.73;9.63;;;4.90;99.90;;;;;;4935222;29;20213;-72
2020/12/27 09:56:40;;;;;;;8.23;5.88;;;5.00;99.90;;;;;;4936705;29;20202;-73
2020/12/27 09:59:06;;;;;;;2.90;2.65;;;4.90;99.90;;;;;;4935867;29;20206;-73
2020/12/27 10:01:33;;;;;;;9.07;2.65;;;5.00;99.90;;;;;;4933989;29;20245;-74
2020/12/27 10:03:59;;;;;;;1.60;1.60;;;5.00;99.90;;;;;;4934529;29;20305;-73
2020/12/27 10:06:26;;;;;;;5.82;4.60;;;5.00;99.90;;;;;;4934799;29;20525;-72
2020/12/27 10:08:52;;;;;;;7.93;4.13;;;5.00;99.90;;;;;;4945565;29;20212;-73
2020/12/27 10:11:18;;;;;;;3.72;3.40;;;5.00;99.90;;;;;;4948591;29;20226;-73
2020/12/27 10:13:44;;;;;;;1.15;1.15;;;5.00;99.90;;;;;;4933748;29;20308;-70
2020/12/27 10:16:11;;;;;;;1.08;1.08;;;5.00;99.90;;;;;;4939133;29;20616;-71
2020/12/27 10:18:37;;;;;;;1.98;1.98;;;5.10;99.90;;;;;;4934767;29;20221;-71
2020/12/27 10:21:03;;;;;;;1.70;1.60;;;5.00;99.90;;;;;;4934430;29;20281;-70
2020/12/27 10:23:30;;;;;;;3.05;1.67;;;5.10;99.90;;;;;;4934232;29;20241;-70
2020/12/27 10:25:56;;;;;;;1.45;1.25;;;5.10;99.90;;;;;;4941357;29;20685;-70
2020/12/27 10:28:22;;;;;;;1.08;1.08;;;5.10;99.90;;;;;;4953431;29;20240;-70
2020/12/27 10:30:48;;;;;;;1.23;1.23;;;5.10;99.90;;;;;;4953413;28;20666;-71
2020/12/27 10:33:16;;;;;;;2.30;1.50;;;5.10;99.90;;;;;;4953232;29;20261;-69
2020/12/27 10:35:42;;;;;;;1.45;1.42;;;5.20;99.90;;;;;;4948115;28;20209;-73
2020/12/27 10:38:09;;;;;;;1.60;1.40;;;5.30;99.90;;;;;;4953627;28;20215;-72
2020/12/27 10:40:38;;;;;;;1.70;1.70;;;5.30;99.90;;;;;;4954580;28;20221;-73
2020/12/27 10:43:04;;;;;;;1.77;1.67;;;5.30;99.90;;;;;;4954596;28;20229;-72
2020/12/27 10:45:30;;;;;;;1.48;1.48;;;5.40;99.90;;;;;;4955788;28;20209;-73
2020/12/27 10:47:57;;;;;;;2.88;2.78;;;5.40;99.90;;;;;;4952837;29;20209;-75
2020/12/27 10:50:23;;;;;;;1.63;1.52;;;5.40;99.90;;;;;;4949709;29;20265;-77
2020/12/27 10:52:49;;;;;;;1.83;1.73;;;5.30;99.90;;;;;;4956720;29;20200;-74
2020/12/27 10:55:15;;;;;;;2.55;2.45;;;5.30;99.90;;;;;;4955864;29;20201;-75
2020/12/27 10:57:42;;;;;;;0.90;0.90;;;5.30;99.90;;;;;;4954556;28;20260;-74
2020/12/27 11:00:08;;;;;;;1.23;1.23;;;5.40;99.90;;;;;;4952273;29;20202;-75
2020/12/27 11:02:34;;;;;;;0.98;0.98;;;5.40;99.90;;;;;;4955011;28;20237;-73
2020/12/27 11:05:01;;;;;;;1.20;0.90;;;5.40;99.90;;;;;;4955699;29;20216;-73
2020/12/27 11:07:27;;;;;;;1.00;1.00;;;5.40;99.90;;;;;;4956130;29;20209;-73
2020/12/27 11:09:53;;;;;;;9.10;7.35;;;5.50;99.90;;;;;;4956531;29;20228;-74
2020/12/27 11:12:19;;;;;;;5.32;4.90;;;5.50;99.90;;;;;;4955735;28;20217;-74
2020/12/27 11:14:46;;;;;;;5.47;4.97;;;5.40;99.90;;;;;;4955917;28;20213;-72
2020/12/27 11:17:12;;;;;;;3.22;3.00;;;5.40;99.90;;;;;;4937416;29;20205;-72
2020/12/27 11:19:38;;;;;;;1.70;1.70;;;5.40;99.90;;;;;;4937723;29;20240;-73
2020/12/27 11:22:05;;;;;;;2.40;2.28;;;5.40;99.90;;;;;;4937162;29;20234;-74
2020/12/27 11:24:31;;;;;;;2.13;2.03;;;5.40;99.90;;;;;;4945801;29;20205;-73
2020/12/27 11:26:57;;;;;;;2.40;2.30;;;5.40;99.90;;;;;;4955515;28;20236;-73
2020/12/27 11:29:23;;;;;;;1.80;1.80;;;5.40;99.90;;;;;;4956336;28;20697;-73
2020/12/27 11:31:53;;;;;;;2.80;2.60;;;5.40;99.90;;;;;;4946096;28;20225;-73
2020/12/27 11:34:19;;;;;;;2.60;2.50;;;5.50;99.90;;;;;;4937467;29;20201;-73
2020/12/27 11:36:47;;;;;;;3.30;2.92;;;5.40;99.90;;;;;;4937211;29;20221;-70
2020/12/27 11:39:13;;;;;;;2.67;2.13;;;5.50;99.90;;;;;;4936974;29;20221;-72
2020/12/27 11:41:39;;;;;;;2.58;2.45;;;5.50;99.90;;;;;;4936428;29;20296;-72
2020/12/27 11:44:06;;;;;;;1.50;1.50;;;5.50;99.90;;;;;;4937205;29;20210;-71
2020/12/27 11:46:33;;;;;;;1.50;1.50;;;5.50;99.90;;;;;;4935970;29;20217;-73
2020/12/27 11:49:00;;;;;;;1.75;1.65;;;5.50;99.90;;;;;;4937741;29;20653;-73
2020/12/27 11:51:26;;;;;;;2.00;2.00;;;5.50;99.90;;;;;;4943516;29;20232;-73
2020/12/27 11:53:53;;;;;;;1.77;1.70;;;5.60;99.90;;;;;;4955600;29;20209;-72
2020/12/27 11:56:19;;;;;;;3.63;1.70;;;5.60;99.90;;;;;;4955441;29;20536;-73
2020/12/27 11:58:45;;;;;;;1.83;1.73;;;5.60;99.90;;;;;;4955348;28;20276;-74
2020/12/27 12:01:12;;;;;;;1.13;1.13;;;5.60;99.90;;;;;;4955666;28;20237;-71
2020/12/27 12:03:38;;;;;;;1.00;1.00;;;5.60;99.90;;;;;;4952790;28;20229;-72
2020/12/27 12:06:05;;;;;;;2.83;2.63;;;5.60;99.90;;;;;;4940065;29;20597;-73
2020/12/27 12:08:31;;;;;;;2.78;2.58;;;5.50;99.90;;;;;;4956292;29;20264;-72
2020/12/27 12:10:57;;;;;;;1.42;1.42;;;5.50;99.90;;;;;;4955737;28;20579;-72
2020/12/27 12:13:23;;;;;;;1.95;1.85;;;5.50;99.90;;;;;;4955708;28;20237;-73
2020/12/27 12:15:49;;;;;;;6.38;3.53;;;5.50;99.90;;;;;;4952501;29;20205;-73
2020/12/27 12:18:16;;;;;;;5.68;4.85;;;5.50;99.90;;;;;;4939136;29;20261;-73
2020/12/27 12:20:48;;;;;;;9.80;4.47;;;5.50;99.90;;;;;;4954231;29;20283;-73
2020/12/27 12:23:15;;;;;;;15.65;8.05;;;5.50;99.90;;;;;;4944389;28;20590;-75
2020/12/27 12:25:43;;;;;;;4.03;3.83;;;5.50;99.90;;;;;;4953967;28;20209;-76
2020/12/27 12:28:09;;;;;;;1.20;1.20;;;5.40;99.90;;;;;;4954783;28;20292;-76
2020/12/27 12:30:35;;;;;;;1.33;1.20;;;5.40;99.90;;;;;;4953613;28;20626;-76
2020/12/27 12:33:01;;;;;;;1.13;1.13;;;5.40;99.90;;;;;;4943187;29;20201;-74
2020/12/27 12:35:27;;;;;;;0.98;0.98;;;5.40;99.90;;;;;;4935820;29;20206;-75
2020/12/27 12:37:54;;;;;;;1.35;1.35;;;5.50;99.90;;;;;;4936794;29;20214;-73
2020/12/27 12:40:21;;;;;;;0.82;0.82;;;5.50;99.90;;;;;;4945404;29;20209;-73
2020/12/27 12:42:47;;;;;;;1.92;1.25;;;5.50;99.90;;;;;;4952016;28;20224;-73
2020/12/27 12:45:13;;;;;;;1.33;1.33;;;5.50;99.90;;;;;;4953615;29;20201;-73
2020/12/27 12:47:39;;;;;;;1.52;1.52;;;5.50;99.90;;;;;;4945736;28;20206;-73
2020/12/27 12:50:05;;;;;;;1.55;1.50;;;5.50;99.90;;;;;;4941870;29;20216;-73
2020/12/27 12:52:31;;;;;;;1.67;1.25;;;5.60;99.90;;;;;;4954318;28;20245;-73
2020/12/27 12:54:58;;;;;;;2.88;2.78;;;5.60;99.90;;;;;;4954627;29;20210;-73
2020/12/27 12:57:25;;;;;;;2.13;1.92;;;5.60;99.90;;;;;;4953193;29;20239;-72
2020/12/27 12:59:51;;;;;;;2.70;2.55;;;5.60;99.90;;;;;;4954769;28;20213;-76
2020/12/27 13:02:17;;;;;;;7.78;4.28;;;5.50;99.90;;;;;;4949441;29;20657;-76
2020/12/27 13:04:43;;;;;;;3.40;3.10;;;5.50;99.90;;;;;;4954712;28;20224;-76
2020/12/27 13:07:09;;;;;;;2.40;2.30;;;5.50;99.90;;;;;;4953490;28;20214;-76
2020/12/27 13:09:35;;;;;;;3.42;3.13;;;5.50;99.90;;;;;;4942699;29;20221;-76
2020/12/27 13:12:02;;;;;;;4.15;3.00;;;5.40;99.90;;;;;;4945461;28;20578;-75
2020/12/27 13:14:29;;;;;;;2.35;2.20;;;5.40;99.90;;;;;;4940441;29;20268;-75
2020/12/27 13:16:55;;;;;;;2.15;2.05;;;5.30;99.90;;;;;;4954732;28;20216;-75
2020/12/27 13:19:21;;;;;;;2.00;1.90;;;5.30;99.90;;;;;;4955083;28;20209;-75
2020/12/27 13:21:47;;;;;;;4.80;3.83;;;5.20;99.90;;;;;;4944865;29;20683;-75
2020/12/27 13:24:13;;;;;;;6.47;4.68;;;5.10;99.90;;;;;;4937386;29;20214;-75
2020/12/27 13:26:41;;;;;;;3.70;3.40;;;5.00;99.90;;;;;;4953251;28;20214;-75
2020/12/27 13:29:07;;;;;;;3.38;3.17;;;5.00;99.90;;;;;;4953786;29;20201;-76
2020/12/27 13:31:37;;;;;;;2.33;2.22;;;4.90;99.90;;;;;;4950207;29;20317;-75
2020/12/27 13:34:04;;;;;;;4.40;4.10;;;4.90;99.90;;;;;;4936089;29;20312;-75
2020/12/27 13:36:30;;;;;;;1.52;1.42;;;4.90;99.90;;;;;;4954250;28;20278;-74
2020/12/27 13:38:56;;;;;;;2.47;2.47;;;4.90;99.90;;;;;;4953950;29;20305;-76
2020/12/27 13:41:22;;;;;;;3.35;3.08;;;4.80;99.90;;;;;;4952296;28;20597;-75
2020/12/27 13:43:48;;;;;;;1.50;1.42;;;4.80;99.90;;;;;;4944180;29;20229;-75
2020/12/27 13:46:16;;;;;;;2.97;2.75;;;4.70;99.90;;;;;;4951420;29;20205;-76
2020/12/27 13:48:44;;;;;;;8.18;2.60;;;4.60;99.90;;;;;;4953067;29;20260;-71
2020/12/27 13:51:10;;;;;;;1.70;1.70;;;4.50;99.90;;;;;;4934584;29;20669;-70
2020/12/27 13:53:38;;;;;;;2.05;1.95;;;4.50;99.90;;;;;;4935153;29;20214;-72
2020/12/27 13:56:04;;;;;;;1.90;1.90;;;4.50;99.90;;;;;;4963758;28;20233;-73
2020/12/27 13:58:30;;;;;;;2.25;2.15;;;4.40;99.90;;;;;;4951738;29;20232;-74
2020/12/27 14:00:56;;;;;;;2.53;2.33;;;4.40;99.90;;;;;;4959832;28;20324;-76
2020/12/27 14:03:22;;;;;;;3.10;2.95;;;4.30;99.90;;;;;;4963633;29;20631;-74
2020/12/27 14:05:49;;;;;;;2.55;2.45;;;4.30;99.90;;;;;;4961003;28;20354;-70
2020/12/27 14:08:15;;;;;;;2.72;2.53;;;4.30;99.90;;;;;;4953933;29;20354;-70
2020/12/27 14:10:42;;;;;;;2.80;2.65;;;4.30;99.90;;;;;;4945610;28;20233;-73
2020/12/27 14:13:08;;;;;;;2.10;2.05;;;4.30;99.90;;;;;;4949313;28;20198;-70
2020/12/27 14:15:34;;;;;;;1.90;1.90;;;4.20;99.90;;;;;;4939472;29;20205;-71
2020/12/27 14:18:00;;;;;;;1.20;1.20;;;4.20;99.90;;;;;;4937802;28;20210;-70
2020/12/27 14:20:26;;;;;;;2.17;2.08;;;4.20;99.90;;;;;;4945754;29;20205;-69
2020/12/27 14:22:53;;;;;;;1.60;1.60;;;4.20;99.90;;;;;;4955156;29;20591;-69
2020/12/27 14:25:20;;;;;;;2.72;2.53;;;4.20;99.90;;;;;;4955465;29;20296;-69
2020/12/27 14:27:46;;;;;;;1.63;1.60;;;4.20;99.90;;;;;;4956827;28;20213;-69
2020/12/27 14:30:12;;;;;;;2.30;2.10;;;4.20;99.90;;;;;;4951797;28;20206;-73
2020/12/27 14:32:38;;;;;;;1.85;1.85;;;4.20;99.90;;;;;;4937993;29;20220;-72
2020/12/27 14:35:04;;;;;;;3.55;3.28;;;4.10;99.90;;;;;;4954310;28;20669;-72
2020/12/27 14:37:30;;;;;;;1.70;1.60;;;4.10;99.90;;;;;;4956954;28;20201;-72
2020/12/27 14:39:57;;;;;;;3.53;3.33;;;4.10;99.90;;;;;;4942427;29;20206;-70
2020/12/27 14:42:23;;;;;;;3.58;3.38;;;4.10;99.90;;;;;;4956826;28;20252;-70
2020/12/27 14:44:49;;;;;;;2.47;2.38;;;4.10;99.90;;;;;;4941787;28;20206;-70
2020/12/27 14:47:16;;;;;;;4.20;2.38;;;4.10;99.90;;;;;;4949379;29;20205;-70
2020/12/27 14:49:42;;;;;;;3.28;3.08;;;4.10;99.90;;;;;;4942368;29;20301;-70
2020/12/27 14:52:08;;;;;;;5.95;5.00;;;4.10;99.90;;;;;;4937325;29;20698;-70
2020/12/27 14:54:34;;;;;;;2.45;2.35;;;4.10;99.90;;;;;;4952359;29;20275;-70
2020/12/27 14:57:01;;;;;;;4.15;3.88;;;4.10;99.90;;;;;;4956434;29;20623;-71
2020/12/27 14:59:27;;;;;;;5.05;3.70;;;4.10;99.90;;;;;;4952850;29;20279;-71
2020/12/27 15:01:53;;;;;;;3.47;2.83;;;4.20;99.90;;;;;;4953838;28;20456;-70
2020/12/27 15:04:19;;;;;;;2.30;2.20;;;4.20;99.90;;;;;;4956245;29;20209;-70
2020/12/27 15:06:46;;;;;;;2.90;2.80;;;4.20;99.90;;;;;;4956208;28;20519;-70
2020/12/27 15:09:12;;;;;;;3.30;3.20;;;4.20;99.90;;;;;;4956394;29;20340;-70
2020/12/27 15:11:38;;;;;;;3.45;3.13;;;4.10;99.90;;;;;;4954551;28;20229;-70
2020/12/27 15:14:05;;;;;;;2.25;2.15;;;4.10;99.90;;;;;;4956147;28;20201;-70
2020/12/27 15:16:31;;;;;;;2.80;2.63;;;4.10;99.90;;;;;;4954192;28;20209;-71
2020/12/27 15:18:57;;;;;;;4.10;3.70;;;4.10;99.90;;;;;;4956817;29;20213;-71
2020/12/27 15:21:23;;;;;;;2.80;2.60;;;4.00;99.90;;;;;;4955523;28;20307;-71
2020/12/27 15:23:49;;;;;;;3.97;3.67;;;4.00;99.90;;;;;;4957218;29;20776;-71
2020/12/27 15:26:17;;;;;;;4.00;3.50;;;3.90;99.90;;;;;;4954581;28;20220;-72
2020/12/27 15:28:43;;;;;;;3.03;2.78;;;3.90;99.90;;;;;;4956442;28;20296;-70
2020/12/27 15:31:10;;;;;;;3.55;2.78;;;3.90;99.90;;;;;;4951598;28;20253;-73
2020/12/27 15:33:36;;;;;;;3.17;2.83;;;3.80;99.90;;;;;;4955258;29;20560;-73
2020/12/27 15:36:05;;;;;;;2.55;2.50;;;3.70;99.90;;;;;;4950260;29;20217;-72
2020/12/27 15:38:32;;;;;;;3.50;3.30;;;3.70;99.90;;;;;;4956212;29;20201;-73
2020/12/27 15:40:58;;;;;;;6.07;2.97;;;3.60;99.90;;;;;;4955821;28;20229;-73
2020/12/27 15:43:25;;;;;;;4.85;4.30;;;3.60;99.90;;;;;;4955641;28;20217;-73
2020/12/27 15:45:51;;;;;;;3.97;3.78;;;3.50;99.90;;;;;;4955954;29;20205;-72
2020/12/27 15:48:18;;;;;;;3.50;3.20;;;3.40;99.90;;;;;;4953680;28;20213;-74
2020/12/27 15:50:44;;;;;;;4.18;3.83;;;3.40;99.90;;;;;;4956017;28;20596;-69
2020/12/27 15:53:11;;;;;;;4.45;4.05;;;3.40;99.90;;;;;;4954660;29;20205;-68
2020/12/27 15:55:37;;;;;;;4.93;4.70;;;3.30;99.90;;;;;;4956019;28;20214;-68
2020/12/27 15:58:05;;;;;;;4.22;4.03;;;3.30;99.90;;;;;;4953119;29;20653;-70
2020/12/27 16:00:31;;;;;;;4.50;4.20;;;3.20;99.90;;;;;;4936524;29;20234;-69
2020/12/27 16:02:58;;;;;;;5.00;4.60;;;3.10;99.90;;;;;;4950866;29;20217;-70
2020/12/27 16:05:25;;;;;;;4.78;4.47;;;3.00;99.90;;;;;;4936098;29;20210;-70
2020/12/27 16:07:51;;;;;;;6.45;5.78;;;3.00;99.90;;;;;;4950965;29;20491;-69
2020/12/27 16:10:17;;;;;;;4.68;4.40;;;3.00;99.90;;;;;;4955205;29;20205;-69
2020/12/27 16:12:43;;;;;;;4.85;3.55;;;2.90;99.90;;;;;;4954018;29;20233;-69
2020/12/27 16:15:10;;;;;;;5.53;4.93;;;2.80;99.90;;;;;;4941828;29;20210;-69
2020/12/27 16:17:36;;;;;;;4.97;4.57;;;2.80;99.90;;;;;;4953255;29;20213;-72
2020/12/27 16:20:04;;;;;;;4.93;4.60;;;2.80;99.90;;;;;;4940265;29;20655;-69
2020/12/27 16:22:31;;;;;;;5.72;5.32;;;2.70;99.90;;;;;;4954979;28;20229;-70
2020/12/27 16:24:58;;;;;;;5.20;4.70;;;2.70;99.90;;;;;;4955017;28;20668;-69
2020/12/27 16:27:24;;;;;;;4.43;4.10;;;2.70;99.90;;;;;;4954081;29;20209;-72
2020/12/27 16:29:50;;;;;;;7.07;6.43;;;2.80;99.90;;;;;;4949235;29;20606;-72
2020/12/27 16:32:17;;;;;;;5.88;5.30;;;2.80;99.90;;;;;;4954834;28;20267;-71
2020/12/27 16:34:43;;;;;;;5.28;4.88;;;2.80;99.90;;;;;;4952413;28;20391;-69
2020/12/27 16:37:09;;;;;;;6.07;5.45;;;2.80;99.90;;;;;;4954021;28;20209;-70
2020/12/27 16:39:36;;;;;;;4.95;4.45;;;2.80;99.90;;;;;;4954524;28;20252;-70
2020/12/27 16:42:04;;;;;;;4.63;4.32;;;2.70;99.90;;;;;;4943775;28;20601;-70
2020/12/27 16:44:30;;;;;;;6.53;5.93;;;2.70;99.90;;;;;;4952609;28;20216;-71
2020/12/27 16:46:56;;;;;;;4.85;4.45;;;2.80;99.90;;;;;;4953512;29;20638;-71
2020/12/27 16:49:23;;;;;;;6.15;5.55;;;2.80;99.90;;;;;;4954619;28;20213;-71
2020/12/27 16:51:51;;;;;;;5.60;5.18;;;2.70;99.90;;;;;;4948298;29;20250;-71
2020/12/27 16:54:18;;;;;;;6.55;5.70;;;2.70;99.90;;;;;;4935766;29;20206;-71
2020/12/27 16:56:46;;;;;;;4.60;4.20;;;2.70;99.90;;;;;;4949512;29;20211;-71
2020/12/27 16:59:12;;;;;;;6.47;5.03;;;2.70;99.90;;;;;;4956423;29;20217;-70
2020/12/27 17:01:38;;;;;;;6.13;5.63;;;2.70;99.90;;;;;;4954375;28;20237;-71
2020/12/27 17:04:04;;;;;;;5.35;4.95;;;2.70;99.90;;;;;;4938715;29;20249;-71
2020/12/27 17:06:30;;;;;;;7.18;6.30;;;2.70;99.90;;;;;;4947073;29;20689;-71
2020/12/27 17:08:57;;;;;;;5.35;4.82;;;2.70;99.90;;;;;;4953224;29;20568;-70
2020/12/27 17:11:24;;;;;;;6.43;5.88;;;2.80;99.90;;;;;;4951200;29;20220;-75
2020/12/27 17:13:51;;;;;;;5.80;5.30;;;2.70;99.90;;;;;;4955872;28;20213;-76
2020/12/27 17:16:24;;;;;;;5.55;5.15;;;2.80;99.90;;;;;;4955605;29;20223;-75
2020/12/27 17:18:50;;;;;;;6.60;4.57;;;2.80;99.90;;;;;;4948384;28;20228;-74
2020/12/27 17:21:16;;;;;;;5.53;5.03;;;2.80;99.90;;;;;;4953369;28;20321;-75
2020/12/27 17:23:42;;;;;;;5.22;4.15;;;2.80;99.90;;;;;;4951406;29;20218;-71
2020/12/27 17:26:09;;;;;;;5.25;4.85;;;2.80;99.90;;;;;;4936027;29;20223;-71
2020/12/27 17:28:36;;;;;;;4.85;4.45;;;2.80;99.90;;;;;;4944724;29;20216;-71
2020/12/27 17:31:03;;;;;;;4.63;4.22;;;2.80;99.90;;;;;;4945538;29;20233;-71
2020/12/27 17:33:29;;;;;;;9.82;8.82;;;2.80;99.90;;;;;;4933300;29;20237;-71
2020/12/27 17:35:55;;;;;;;5.70;5.28;;;2.80;99.90;;;;;;4948545;29;20219;-70
2020/12/27 17:38:21;;;;;;;8.20;6.45;;;2.80;99.90;;;;;;4946589;28;20202;-70
2020/12/27 17:40:48;;;;;;;6.97;6.32;;;2.90;99.90;;;;;;4940324;29;20271;-70
2020/12/27 17:43:14;;;;;;;6.35;5.78;;;2.90;99.90;;;;;;4936051;29;20233;-72
2020/12/27 17:45:41;;;;;;;5.53;5.07;;;2.90;99.90;;;;;;4949754;28;20213;-72
2020/12/27 17:48:08;;;;;;;5.03;4.70;;;2.90;99.90;;;;;;4940901;29;20261;-71
2020/12/27 17:50:34;;;;;;;6.00;5.40;;;2.90;99.90;;;;;;4941632;29;20221;-70
2020/12/27 17:53:00;;;;;;;6.38;5.78;;;3.00;99.90;;;;;;4944742;28;20237;-71
2020/12/27 17:55:26;;;;;;;5.10;4.70;;;3.00;99.90;;;;;;4945040;28;20315;-70
2020/12/27 17:57:53;;;;;;;5.10;4.47;;;3.00;99.90;;;;;;4938351;29;20217;-70
2020/12/27 18:00:19;;;;;;;6.15;5.55;;;3.00;99.90;;;;;;4945152;28;20639;-72